Terminal Aerodrome Forecast
Issued by NWS

Home | Current Version | Previous Version | Text Only | Print | Product List | Glossary On
Versions: 1 2 3 4 5 6 7 8 9 10 11 12 13
000
FTUS43 KGRR 281740
TAFAZO
TAF
KAZO 281740Z 2818/2918 08004KT P6SM SCT035
     FM281900 05004KT P6SM VCTS BKN040CB
     FM290300 07004KT P6SM VCSH SCT050 BKN100=

USA.gov is the U.S. government's official web portal to all federal, state and local government web resources and services.